Aeroporto :
LOGIN :

Iscrizione | Disclaimer

   EN    FR    IT 

 










Sommario :    VFR   VFR Marginale   IFR   IFR Intensivo   IFR Molto Intensivo
Visibilità : 
Base nubi : 
>= 8 km
>= 3000ft
5 / 8 km
1000 / 3000 ft
1500m / 5 km
500 / 1000 ft
800 / 1500m
200 / 500 ft
< 800m
< 200 ft
Simboli :   Temporali  Nebbia  Neve Forte  Precipitazioni Forti  Vento > 20 kt
SIGMETs :   Varie  Temporali  Ghiacco  Turbolenza  Onda orograficha  Ceneri Vulcaniche






- Altitudine del aeroporto : 182 ft
- Codice IATA : KCO


LTBQ - Cengiz Topel

ULTIMO METAR :
  • 291350Z 32005KT 280V360 9999 BKN030 BKN100 21/19 Q1010 TEMPO 27015G30 -TSRA

METARs OBSOLETI :
  • 291250Z 28009KT 240V300 9999 BKN028 BKN100 20/18 Q1010 RETSRA TEMPO 27015G30KT 4000 TSRA
  • 291216Z VRB09G20KT 9999 FEW024CB BKN030 BKN100 21/19 Q1010 RETSRA TEMPO 272020G35KT 4000 TSRA
  • 291203Z 30015G28KT 4000 -TSRA FEW024CB BKN028 BKN080 23/20 Q1011 TEMPO 4000 TSRA

TAF TAF LTBQ
Valido dal 29 a 15 ore il 30 a 00 ore UTC


291340Z 2915/2924 30008KT 8000 BKN030 BKN080
TEMPO 2915/2917 27015G30KT -TSRA FEW025CB BKN030
BECMG 2918/2920 SCT030



MetMap, La meteo Aeronautica in un colpo d'occhio ! - Copyright ORBIFLY Dicembre 2007 - Disclaimer

ORBIFLY MET'MAP TEAM :

Programmazione e sviluppo : Alexandra Zaïnal
Concezione : Baudouin d'Aumeries
Aiuto per la programmazione : Marc-Olivier Méhu
Supporto tecnico e logistico : Manuel Goepfert
Aiuto per la traduzione : Arnaldo La Scala

Contatto : metmap@orbifly.com




FONTI E CREDITI :

   NOAA